Du har inga inställningar för hoppväder.nu

Hoppväder.nu

Senast uppdaterat 00:57

UTC-tid

2018-10-19 kl. 22:57


Sol och måne

Solen går upp 8:00 och går ner 17:28 (beräknade cirkatider)
Nästa fullmåne blir om 4 dagar (2018-10-24)

METAR

ESOE (Örebro)
(7 minuter sedan)
ESOE 192250Z AUTO 19003KT 9999 NCD 04/04 Q1020=



ESOK (Karlstad)
(7 minuter sedan)
ESOK 192250Z AUTO 19003KT 9999 NCD 06/06 Q1019=



ESGR (Skövde)
(7 minuter sedan)
ESGR 192250Z AUTO 18004KT 9999 SCT039/// OVC140/// 06/03 Q1021=



ESSD (Borlänge)
(7 minuter sedan)
ESSD 192250Z AUTO 12002KT 9999 BKN140/// OVC190/// 03/03 Q1019=



ESOW (Västerås)
(7 minuter sedan)
ESOW 192250Z AUTO 06003KT 9999 OVC140/// 02/00 Q1021=



TAF

ESOE (Örebro)
(327 minuter sedan)
ESOE 191730Z 1918/1920 22004KT CAVOK PROB40 1918/1920 2000 BCFG=



ESOK (Karlstad)
(327 minuter sedan)
ESOK 191730Z 1918/1921 VRB02KT CAVOK PROB40 1918/1921 1200 BCFG=



ESGR (Skövde)
ESGR



ESSD (Borlänge)
ESSD



ESOW (Västerås)
ESOW





Kodnycklar till TAF och METAR






LHP

(Örebro är område G2a i Södra delen)

Prognos är inte uppdaterad
ÄNDRAD ÖVERSIKT FÖR OMRÅDE B UTFÄRDAD 191320
GÄLLANDE DEN 19 OKTOBER 2018 MELLAN 12 OCH 20 UTC


Väderöversikt

En högtrycksrygg täcker södra Sverige Under dagen rör sig fuktigare luft in över Götaland från väster

Sikt under 5 kilometer eller molnbas under 1000 fot
14-16UTC: Område Nordvästra delen
16-20UTC: Område Nordvästra delen och Södra delen


Måttlig eller svår isbildning
Väntas inte förekomma under perioden

Måttlig eller svår turbulens
Väntas inte förekomma under perioden

ÄNDRAD PROGNOS FÖR OMRÅDE B DEN SÖDRA DELEN UTFÄRDAD 191320
GÄLLANDE DEN 19 OKTOBER 2018 MELLAN 12 OCH 20 UTC

Måttlig eller svår turbulens
12-20UTC: I hela området: Väntas inte förekomma under perioden

Måttlig eller svår isbildning
12-20UTC: I hela området: Väntas inte förekomma under perioden

Sikt/Väder/Moln
12-16UTC: Område G2a,G3b: Sikt >8km. Molnbas >2000ft.

12-20UTC: Område G1a,G1b,G1c,G2b,G2c,G3a,G3c,G3d: Sikt >8km. Molnbas >2000ft.

16-18UTC: Område G2a,G3b: Sikt 5km - >8km i dis, dimma. Molnbas <500ft - >2000ft.

18-20UTC: Område G2a,G3b: Sikt <1.5km - >8km i dis, dimma. Molnbas <500ft - >2000ft.


Molnöversida
12-14UTC: Område G3d: Ingen prognos

12-20UTC: Område G1a,G1b,G1c,G2a,G2b,G2c,G3a,G3b,G3c: Ingen prognos

14-18UTC: Område G3d: Molnöversida FL050.

18-20UTC: Område G3d: Ingen prognos


CB/TCU Moln
12-20UTC: I hela området: Väntas inte förekomma under perioden

Nollgradersisoterm
12-14UTC: Noll grader 4500ft - FL085.
14-18UTC: Noll grader FL050 - FL080.
18-20UTC: Noll grader FL055 - FL085.

Vind vid marken
12-14UTC: Område G1c: SV-V/0-5 knop.
Område G3b: SV-V/0-7 knop, byar upp till 11 knop.
Område G2b: SV-V/1-4 knop.
Område G1a: V/0-8 knop, byar upp till 11 knop.
Område G3d: V/1-7 knop.
Område G2a: SV/0-4 knop.
Område G2c: V/1-4 knop.
Område G1b,G3c: V/0-6 knop, byar upp till 11 knop.

12-20UTC: Område G3a: Lugnt.

14-16UTC: Område G1c: S/0-9 knop, byar upp till 11 knop.
Område G3b: SV/0-9 knop, byar upp till 13 knop.
Område G3c: SV-V/0-6 knop.
Område G1a: V/0-8 knop.
Område G3d: SV-V/0-7 knop.
Område G2a,G2b: Lugnt.
Område G1b: S-SV/0-5 knop.

14-20UTC: Område G2c: Lugnt.

16-18UTC: Område G1b: S-SV/0-8 knop.
Område G1a: V/0-10 knop, byar upp till 12 knop.
Område G2a: S/0-4 knop.
Område G3c: S-SV/0-7 knop.
Område G1c: S-SV/0-8 knop, byar upp till 11 knop.
Område G3d: SV/0-9 knop, byar upp till 12 knop.
Område G2b: S-SV/0-5 knop.
Område G3b: S-SV/0-7 knop, byar upp till 11 knop.

18-20UTC: Område G1a: SV-V/0-8 knop, byar upp till 12 knop.
Område G2b: S-SV/0-6 knop.
Område G3b: S-SV/0-4 knop.
Område G3d: SV/0-12 knop, byar upp till 16 knop.
Område G3c: S-SV/0-11 knop, byar upp till 17 knop.
Område G1c: SV/0-8 knop.
Område G1b,G2a: S-SV/0-7 knop.


Vind och temperatur
2000ft:
12-14UTC: 290/13kt +3.
14-16UTC: 270/11kt +3.
16-18UTC: 260/11kt +2.
18-20UTC: 250/13kt +2.

FL50:
12-14UTC: 280/15kt +0.
14-16UTC: 280/14kt +0.
16-18UTC: 290/12kt +0.
18-20UTC: 280/10kt +0.

FL100:
12-14UTC: 270/19kt -6.
14-16UTC: 270/20kt -6.
16-18UTC: 280/20kt -6.
18-20UTC: 280/18kt -6.

Lägsta QNH
1020 hPa.

OBS! endast utbredd måttlig eller svår isbildning och turbulens prognostiseras i LLF.
Avsaknad av isbildning och turbulens i prognosen utesluter inte förekomst av lätt isbildning och turbulens.
För indikation på lätt isbildning, var vänlig kontrollera om prognosen för molntopp ligger högre än nollgradersisotermen.
Förekomst av TCU eller CB medför alltid en risk för måttlig eller svår isbildning och turbulens även om det inte framgår explicit av prognosen.

ÖVERSIKTLIG PROGNOS FÖR OMRÅDE B UTFÄRDAD 191306
GÄLLANDE DEN 20 OKTOBER 2018 MELLAN 04 OCH 16 UTC


Väderöversikt
En kallfront passerar österut över Götaland och Svealand under morgonen
SÖDRA DELEN


Sikt/Väder/Moln
04-08UTC: Område G1a,G1b,G1c,G3d: Sikt 5km - >8km i dis, regn. Molnbas 500ft - >2000ft.
Område G2a,G2b,G2c,G3a,G3b,G3c: Sikt >8km, lokalt 5km - 8km i dis, regn. Molnbas >2000ft, lokalt 500ft - 1000ft.

08-12UTC: Område G1a,G1b,G1c,G2a,G2b,G2c: Sikt 5km - >8km i dis. Molnbas 500ft - >2000ft.
Område G3a,G3b,G3c,G3d: Sikt >8km, lokalt 5km - 8km i dis. Molnbas >2000ft, lokalt 500ft - 1000ft.

12-16UTC: I hela området: Sikt >8km. Molnbas >2000ft.

CB/TCU Moln
04-16UTC: I hela området: Väntas inte förekomma under perioden

Vind vid marken
04-08UTC: Område G3c,G3d: SV-V/1-14 knop, byar upp till 20 knop.
Område G2b: SV/0-7 knop.
Område G2c: SV/1-3 knop.
Område G3b: SV-V/0-11 knop, byar upp till 17 knop.
Område G1a: SV-V/0-7 knop.
Område G1b: V/0-9 knop, byar upp till 12 knop.
Område G3a: SV/0-5 knop.
Område G2a: SV-V/0-11 knop, byar upp till 14 knop.

04-12UTC: Område G1c: V/2-11 knop, byar upp till 14 knop.

08-12UTC: Område G2c: SV-V/1-5 knop.
Område G2a: W-NV/1-8 knop, byar upp till 15 knop.
Område G2b: V/0-6 knop.
Område G3a: V/1-7 knop, byar upp till 13 knop.
Område G3c: SV-V/0-12 knop, byar upp till 18 knop.
Område G1a: SV-V/1-10 knop, byar upp till 12 knop.
Område G3d: SV-V/1-12 knop, byar upp till 18 knop.
Område G1b: V/2-12 knop, byar upp till 14 knop.
Område G3b: V/0-7 knop, byar upp till 14 knop.

12-16UTC: Område G3b: W-NV/4-9 knop.
Område G1b: V/2-12 knop, byar upp till 17 knop.
Område G2b: NV/2-8 knop, byar upp till 13 knop.
Område G2c: NV/2-6 knop, byar upp till 13 knop.
Område G3a: NV/3-9 knop, byar upp till 16 knop.
Område G3c: W-NV/4-11 knop, byar upp till 17 knop.
Område G3d: W-NV/3-10 knop, byar upp till 17 knop.
Område G1c: V/2-11 knop, byar upp till 15 knop.
Område G1a: V/0-8 knop, byar upp till 14 knop.
Område G2a: W-NV/3-10 knop, byar upp till 14 knop.





Spotting

Hur fungerar spotthjälpen och Vindkartan?

Markvind är ca 0 m/s.
Vind på 600 m ca 0 m/s.
Vind på 1500 m ca 0 m/s.
Vind på 3000 m ca 0 m/s.
FXB flyger ca 36 m/s över marken på finalen.
Du driver ca 0 m bakåt i frifall. (0 m)
Lämplig spot är 8 sekunder eller 288 m innan gropen.
(-8s eller -288 m)
För små grupper eller ensamhoppare bör man vänta 4-6 sekunder mellan grupperna.
För större grupper bör man vänta 8-10 sekunder mellan grupperna.


Vindkartan

Senast uppdaterad 00:57




All data kommer från LFV.se